Woodland Park, CO

7:22 AM MDT on October 20, 2014 (GMT -0600)
The Wookies Den | Change Station
CLOSE
Current Station
Personal Weather Station
Location: Woodland Park, CO
Elevation: 8432 ft
Nearby Weather Stations

Elev 8432 ft 39.00 °N, 105.07 °W | Updated 1 minute ago

Clear
Clear
32.4 °F
Feels Like 32 °F
N
0.0
Wind Variable Wind from SW
Gusts 13.0 mph

Today
High -- | Low -- °F
--% Chance of Precip.
Yesterday
High -- | Low -- °F
Precip. -- in
7:14 AM 6:14 PM
Waning Crescent, 11% visible
Pressure 30.26 in
Visibility 10.0 miles
Clouds Clear
Windchill 32 °F
Dew Point 30 °F
Humidity 89%
Rainfall 0.00 in
Snow Depth 2 in
UV 0 out of 12
Pollen 2.50 out of 12
Ozone Good
PM2.5 Good
Flu Activity Sporadic
METAR KFLY 201314Z AUTO 29005KT 10SM CLR 04/02 A3026 RMK AO2 T00390022

More Conditions Fewer Conditions

Pressure 30.26 in
Visibility 10.0 miles
Clouds Clear
Windchill 32 °F
Dew Point 30 °F
Humidity 89%
Rainfall 0.00 in
Snow Depth 2 in
UV 0 out of 12
Pollen 2.50 out of 12
Ozone Good
PM2.5 Good
Flu Activity Sporadic
METAR KFLY 201314Z AUTO 29005KT 10SM CLR 04/02 A3026 RMK AO2 T00390022

More Conditions Fewer Conditions

10-Day Weather Forecast

Almanac

Astronomy

Oct. 20, 2014 Rise Set
Actual Time 7:14 AM MDT 6:14 PM MDT
Civil Twilight 6:47 AM MDT 6:41 PM MDT
Nautical Twilight 6:16 AM MDT 7:12 PM MDT
Astronomical Twilight 5:45 AM MDT 7:43 PM MDT
Moon 4:07 AM MDT 4:37 PM MDT
Length of Visible Light 11h 53m
Length of Day
10h 59m
Waning Crescent, 11% of the Moon is Illuminated
Today
Waning Crescent
Oct 23
New
Oct 30
First Quarter
Nov 6
Full
Nov 14
Last Quarter

Today's Extremes

State Highs State Lows

Community

WunderPhotos

Upload Photos

1,763,378 photos uploaded!

Nearby

Air Quality

  Air Quality AQ Index Pollutant
Yesterday Good
OZONE
Yesterday Good
PM2.5
Current Good
OZONE
Current Good
PM2.5
Monday Good
PM2.5
Monday Good
OZONE

Snow Depth

Station Depth Elevation
Glen Cove 2 in 11460 ft
Echo Lake 0 in 10600 ft
Michigan Creek 1 in 10600 ft
Jackwhacker Gulch 1 in 10960 ft
Hoosier Pass 1 in 11400 ft

Earthquake Activity

City Distance Mag. Time & Date
Trinidad, Colorado 124 miles 2.5 10:01 PM MDT
2014-10-19
Trinidad, Colorado 136 miles 3.8 11:01 AM MDT
2014-10-17
Minimum magnitude displayed is 2.5.

Coastal Water Temperatures

Place Temperature
No Stations Reporting

Nearby Weather Stations